This is the latest recevied weather packets stored in our database for station/object EA7AVH-10. If no packets are shown the sender has not sent any weather packets the latest 10 day(s).
| Time | Temp. | Humidity | Pressure | Rain* | Wind** | Luminosity | Snow |
|---|---|---|---|---|---|---|---|
| 1778077055 | 23.33° C | 34% | 917.1 hPa | - | - | - | - |
| 1778076154 | 24.44° C | 32% | 917 hPa | - | - | - | - |
| 1778075253 | 23.89° C | 32% | 917.2 hPa | - | - | - | - |
| 1778074352 | 23.33° C | 32% | 917.4 hPa | - | - | - | - |
| 1778073451 | 23.89° C | 31% | 917.4 hPa | - | - | - | - |
| 1778072550 | 22.78° C | 33% | 917.4 hPa | - | - | - | - |
| 1778071649 | 22.22° C | 33% | 917.6 hPa | - | - | - | - |
| 1778070748 | 22.22° C | 33% | 917.6 hPa | - | - | - | - |
| 1778069848 | 24.44° C | 30% | 917.9 hPa | - | - | - | - |
| 1778068947 | 23.33° C | 30% | 917.8 hPa | - | - | - | - |
| 1778068046 | 25° C | 28% | 918.2 hPa | - | - | - | - |
| 1778067145 | 24.44° C | 28% | 918.1 hPa | - | - | - | - |
| 1778066244 | 25° C | 26% | 918.2 hPa | - | - | - | - |
| 1778065363 | 26.11° C | 24% | 918.4 hPa | - | - | - | - |
| 1778064463 | 26.11° C | 24% | 918.4 hPa | - | - | - | - |
| 1778063562 | 26.67° C | 24% | 918.5 hPa | - | - | - | - |
| 1778062661 | 29.44° C | 23% | 918.5 hPa | - | - | - | - |
| 1778061760 | 31.67° C | 23% | 918.7 hPa | - | - | - | - |
| 1778060859 | 28.33° C | 25% | 918.8 hPa | - | - | - | - |
| 1778059959 | 30° C | 24% | 918.8 hPa | - | - | - | - |
| 1778059058 | 29.44° C | 26% | 918.8 hPa | - | - | - | - |
| 1778058157 | 30° C | 25% | 918.7 hPa | - | - | - | - |
| 1778057256 | 28.33° C | 29% | 918.9 hPa | - | - | - | - |
| 1778056355 | 31.11° C | 27% | 918.9 hPa | - | - | - | - |
| 1778055454 | 30° C | 28% | 918.9 hPa | - | - | - | - |
* Rain since midnight (hover to see other rain measurements)
** Current wind speed in m/s (hover to see current wind gust speed)